Time;durP1;ratioP1;P1;durP2;ratioP2;P2;SDS_P1;SDS_P2;PMS_P1;PMS_P2;Temp;Humidity;BMP_temperature;BMP_pressure;BME280_temperature;BME280_humidity;BME280_pressure;Samples;Min_cycle;Max_cycle;Signal;HPM_P1;HPM_P2
2022/01/29 00:00:06;;;;;;;42.97;8.93;;;;;;;7.09;92.70;102744.41;5032290;28;20493;-41
2022/01/29 00:02:31;;;;;;;53.03;9.55;;;;;;;7.11;92.92;102738.00;5031193;28;20041;-40
2022/01/29 00:04:56;;;;;;;45.85;8.90;;;;;;;7.14;92.58;102740.44;5030262;28;20033;-42
2022/01/29 00:07:22;;;;;;;43.53;11.75;;;;;;;7.11;93.24;102740.66;5030462;28;20114;-39
2022/01/29 00:09:48;;;;;;;48.90;9.88;;;;;;;7.07;94.11;102733.81;5031961;28;20101;-41
2022/01/29 00:12:13;;;;;;;53.17;10.18;;;;;;;7.04;94.57;102726.00;5031645;28;20044;-41
2022/01/29 00:14:39;;;;;;;50.72;9.98;;;;;;;7.07;94.66;102728.47;5031395;28;20037;-41
2022/01/29 00:17:04;;;;;;;58.30;9.40;;;;;;;7.08;94.57;102724.78;5031379;28;20036;-41
2022/01/29 00:19:29;;;;;;;51.05;10.35;;;;;;;7.09;94.30;102713.13;5031619;28;20047;-42
2022/01/29 00:21:55;;;;;;;47.45;8.95;;;;;;;7.10;94.37;102714.84;5031206;28;20065;-41
2022/01/29 00:24:20;;;;;;;59.00;11.18;;;;;;;7.11;94.68;102697.81;5031210;28;20037;-41
2022/01/29 00:26:46;;;;;;;46.53;9.02;;;;;;;7.09;95.18;102696.22;5031741;28;20049;-41
2022/01/29 00:29:19;;;;;;;42.75;9.98;;;;;;;7.06;95.70;102697.31;5031070;28;20664;-39
2022/01/29 00:31:44;;;;;;;53.22;11.07;;;;;;;7.08;96.39;102695.34;5031407;28;20489;-40
2022/01/29 00:34:09;;;;;;;48.78;10.98;;;;;;;7.04;97.00;102693.88;5031160;28;20072;-41
2022/01/29 00:36:35;;;;;;;58.20;11.98;;;;;;;7.07;97.35;102692.81;5030639;28;20036;-41
2022/01/29 00:39:00;;;;;;;56.78;11.38;;;;;;;7.04;98.14;102688.53;5031769;28;20128;-41
2022/01/29 00:41:25;;;;;;;47.88;10.68;;;;;;;7.04;98.52;102693.88;5029983;28;20033;-41
2022/01/29 00:43:51;;;;;;;53.28;13.40;;;;;;;7.04;99.09;102699.25;5032259;28;20358;-41
2022/01/29 00:46:16;;;;;;;59.72;12.48;;;;;;;7.03;99.48;102693.03;5032570;28;20029;-41
2022/01/29 00:48:41;;;;;;;42.65;11.75;;;;;;;7.01;100.00;102684.25;5031319;28;20032;-42
2022/01/29 00:51:07;;;;;;;41.85;11.07;;;;;;;6.99;100.00;102688.84;5031182;28;20481;-40
2022/01/29 00:53:32;;;;;;;48.40;12.00;;;;;;;6.96;100.00;102683.72;5031219;28;20057;-41
2022/01/29 00:55:57;;;;;;;38.90;13.23;;;;;;;6.94;100.00;102685.66;5030970;28;20029;-41
2022/01/29 00:58:23;;;;;;;50.90;12.52;;;;;;;6.96;100.00;102686.41;5030753;28;20041;-41
2022/01/29 01:00:48;;;;;;;44.92;13.32;;;;;;;6.99;100.00;102679.97;5029568;28;20038;-42
2022/01/29 01:03:13;;;;;;;41.63;13.45;;;;;;;7.00;100.00;102673.66;5031149;28;20418;-42
2022/01/29 01:05:39;;;;;;;41.95;14.77;;;;;;;7.00;100.00;102673.66;5030716;28;20053;-42
2022/01/29 01:08:04;;;;;;;51.45;15.15;;;;;;;7.01;100.00;102662.00;5031277;28;20034;-42
2022/01/29 01:10:30;;;;;;;47.72;15.00;;;;;;;7.03;100.00;102654.69;5030769;28;20083;-42
2022/01/29 01:12:55;;;;;;;46.85;14.68;;;;;;;7.02;100.00;102647.63;5030565;28;20385;-42
2022/01/29 01:15:20;;;;;;;49.75;15.45;;;;;;;7.06;100.00;102649.13;5030651;28;20482;-41
2022/01/29 01:17:46;;;;;;;50.90;15.15;;;;;;;7.09;100.00;102643.53;5030808;28;20041;-41
2022/01/29 01:20:11;;;;;;;47.17;14.55;;;;;;;7.12;100.00;102645.13;5030664;28;20045;-42
2022/01/29 01:22:37;;;;;;;37.95;14.98;;;;;;;7.15;100.00;102637.69;5031157;28;20030;-41
2022/01/29 01:25:02;;;;;;;53.58;14.77;;;;;;;7.16;100.00;102638.53;5012818;28;20044;-40
2022/01/29 01:27:27;;;;;;;36.05;13.98;;;;;;;7.18;100.00;102632.09;5029848;28;20029;-41
2022/01/29 01:29:53;;;;;;;47.85;15.23;;;;;;;7.20;100.00;102635.53;5029948;28;20029;-42
2022/01/29 01:32:19;;;;;;;42.28;14.50;;;;;;;7.21;100.00;102642.63;5023491;28;20033;-43
2022/01/29 01:34:49;;;;;;;39.83;14.38;;;;;;;7.26;100.00;102644.91;5030908;28;20022;-40
2022/01/29 01:37:32;;;;;;;44.78;15.48;;;;;;;7.26;100.00;102636.88;5030783;28;20030;-41
2022/01/29 01:39:58;;;;;;;42.83;14.10;;;;;;;7.25;100.00;102637.88;5030522;28;20132;-40
2022/01/29 01:42:23;;;;;;;43.30;13.55;;;;;;;7.29;100.00;102641.16;5032594;28;20053;-41
2022/01/29 01:44:49;;;;;;;33.97;13.65;;;;;;;7.32;100.00;102638.25;5034647;28;20034;-41
2022/01/29 01:47:16;;;;;;;40.88;12.88;;;;;;;7.31;100.00;102640.06;5034753;28;20029;-42
2022/01/29 01:49:41;;;;;;;49.63;14.05;;;;;;;7.35;100.00;102628.16;5028870;28;20079;-41
2022/01/29 01:52:10;;;;;;;43.97;13.90;;;;;;;7.39;99.94;102628.78;5030676;28;20025;-43
2022/01/29 01:54:36;;;;;;;39.80;12.25;;;;;;;7.39;99.94;102618.06;5030018;28;20042;-42
2022/01/29 01:57:01;;;;;;;41.80;13.20;;;;;;;7.40;99.90;102614.44;5032292;28;20034;-41
2022/01/29 01:59:27;;;;;;;35.50;11.32;;;;;;;7.42;99.34;102625.84;5033346;28;20037;-42
2022/01/29 02:01:53;;;;;;;32.35;10.70;;;;;;;7.44;98.84;102606.00;5033554;28;20095;-41
2022/01/29 02:04:18;;;;;;;45.05;11.18;;;;;;;7.48;98.96;102606.66;5033634;28;20022;-41
2022/01/29 02:06:45;;;;;;;36.33;10.13;;;;;;;7.49;98.75;102619.06;5034005;28;20477;-41
2022/01/29 02:09:13;;;;;;;35.50;11.65;;;;;;;7.51;98.29;102611.78;5033896;28;20038;-42
2022/01/29 02:11:47;;;;;;;;;;;;;;;7.52;98.09;102601.91;5035665;28;20028;-41
2022/01/29 02:14:13;;;;;;;42.85;11.07;;;;;;;7.53;98.32;102587.53;5032038;28;19991;-42
2022/01/29 02:16:39;;;;;;;30.42;9.60;;;;;;;7.54;97.91;102584.72;5034314;28;20458;-40
2022/01/29 02:19:04;;;;;;;33.85;9.25;;;;;;;7.55;97.85;102585.59;5033072;28;20077;-40
2022/01/29 02:21:29;;;;;;;35.78;10.52;;;;;;;7.57;97.58;102584.50;5033922;28;20025;-40
2022/01/29 02:23:55;;;;;;;38.47;11.02;;;;;;;7.57;97.83;102584.50;5033833;28;20030;-41
2022/01/29 02:26:20;;;;;;;37.35;9.13;;;;;;;7.57;97.88;102584.50;5034186;28;20025;-40
2022/01/29 02:28:45;;;;;;;38.88;9.43;;;;;;;7.58;97.79;102579.97;5033685;28;20086;-42
2022/01/29 02:31:11;;;;;;;33.38;8.80;;;;;;;7.59;97.61;102574.50;5033404;28;20116;-42
2022/01/29 02:33:39;;;;;;;36.53;9.93;;;;;;;7.57;97.58;102568.41;5033241;28;20041;-41
2022/01/29 02:36:05;;;;;;;30.50;8.95;;;;;;;7.58;97.48;102564.78;5033521;28;20029;-42
2022/01/29 02:38:30;;;;;;;45.72;10.05;;;;;;;7.59;97.30;102561.13;5034637;28;20044;-41
2022/01/29 02:41:02;;;;;;;36.47;8.23;;;;;;;7.61;97.43;102552.94;5033970;28;20107;-41
2022/01/29 02:43:33;;;;;;;32.08;8.07;;;;;;;7.63;97.56;102551.84;5034568;28;20103;-42
2022/01/29 02:46:19;;;;;;;41.92;9.75;;;;;;;7.65;97.22;102552.59;5037181;28;20033;-42
2022/01/29 02:48:46;;;;;;;31.73;9.88;;;;;;;7.64;97.26;102544.69;5036059;28;20114;-42
2022/01/29 02:51:11;;;;;;;37.40;8.95;;;;;;;7.66;97.43;102546.28;5035274;28;20116;-42
2022/01/29 02:53:36;;;;;;;35.85;8.75;;;;;;;7.67;97.49;102533.72;5032415;28;20203;-43
2022/01/29 02:56:02;;;;;;;33.45;7.70;;;;;;;7.68;97.34;102522.84;5033201;28;20061;-41
2022/01/29 02:58:27;;;;;;;32.17;8.20;;;;;;;7.70;97.15;102523.59;5032660;28;20029;-42
2022/01/29 03:00:53;;;;;;;31.15;7.57;;;;;;;7.73;97.43;102518.97;5029989;28;20067;-41
2022/01/29 03:03:18;;;;;;;26.00;9.07;;;;;;;7.74;97.31;102526.03;5033019;28;20078;-41
2022/01/29 03:05:43;;;;;;;38.00;7.45;;;;;;;7.75;97.18;102525.91;5033384;28;20128;-41
2022/01/29 03:08:09;;;;;;;40.85;8.13;;;;;;;7.77;97.27;102520.44;5032043;28;20090;-40
2022/01/29 03:10:34;;;;;;;32.58;7.78;;;;;;;7.76;97.10;102516.03;5033001;28;20108;-41
2022/01/29 03:13:00;;;;;;;35.63;8.80;;;;;;;7.79;97.06;102510.44;5032958;28;20037;-41
2022/01/29 03:15:25;;;;;;;37.20;8.98;;;;;;;7.78;97.00;102506.06;5032910;28;20063;-42
2022/01/29 03:17:50;;;;;;;32.80;7.45;;;;;;;7.81;96.94;102521.88;5032253;28;20068;-40
2022/01/29 03:20:16;;;;;;;27.05;6.93;;;;;;;7.83;96.79;102507.41;5033199;28;20103;-41
2022/01/29 03:22:41;;;;;;;32.15;7.45;;;;;;;7.85;96.87;102507.28;5032716;28;20023;-41
2022/01/29 03:25:06;;;;;;;28.15;6.80;;;;;;;7.87;96.78;102500.81;5033079;28;20036;-41
2022/01/29 03:27:32;;;;;;;27.38;7.78;;;;;;;7.89;96.49;102500.69;5032498;28;20029;-40
2022/01/29 03:29:57;;;;;;;34.53;8.52;;;;;;;7.91;96.59;102504.09;5031916;28;20453;-41
2022/01/29 03:32:23;;;;;;;24.67;7.70;;;;;;;7.91;96.70;102501.41;5031847;28;20047;-40
2022/01/29 03:34:48;;;;;;;35.30;8.40;;;;;;;7.90;96.74;102505.94;5032768;28;20055;-41
2022/01/29 03:37:13;;;;;;;26.65;7.72;;;;;;;7.93;96.41;102493.25;5032391;28;20033;-41
2022/01/29 03:39:41;;;;;;;30.23;8.07;;;;;;;7.96;96.43;102499.22;5031127;28;20040;-41
2022/01/29 03:42:09;;;;;;;;;;;;;;;7.95;96.28;102477.88;5032879;28;20039;-41
2022/01/29 03:44:34;;;;;;;29.52;7.18;;;;;;;7.95;96.43;102484.09;5032881;28;19924;-41
2022/01/29 03:46:59;;;;;;;26.40;7.97;;;;;;;7.98;96.39;102483.88;5032092;28;20021;-42
2022/01/29 03:49:25;;;;;;;28.05;7.38;;;;;;;7.99;96.32;102471.31;5030219;28;20061;-41
2022/01/29 03:51:50;;;;;;;26.67;7.45;;;;;;;7.97;96.15;102476.78;5032437;28;20030;-42
2022/01/29 03:54:15;;;;;;;21.17;6.57;;;;;;;7.98;95.88;102486.53;5032433;28;20172;-41
2022/01/29 03:56:41;;;;;;;27.02;7.13;;;;;;;7.97;96.00;102468.75;5031028;28;20087;-42
2022/01/29 03:59:06;;;;;;;30.38;6.28;;;;;;;7.97;96.15;102466.06;5031848;28;20029;-41
2022/01/29 04:01:31;;;;;;;28.92;7.43;;;;;;;7.98;96.27;102474.94;5032459;28;20026;-41
2022/01/29 04:03:57;;;;;;;22.42;5.97;;;;;;;7.98;96.14;102462.41;5032416;28;20060;-41
2022/01/29 04:06:23;;;;;;;32.08;6.85;;;;;;;7.96;96.13;102461.69;5037444;28;20345;-41
2022/01/29 04:08:49;;;;;;;30.48;6.65;;;;;;;7.96;96.37;102461.69;5042296;28;20029;-41
2022/01/29 04:11:15;;;;;;;26.95;6.55;;;;;;;7.96;96.47;102467.03;5031838;28;20512;-42
2022/01/29 04:13:44;;;;;;;34.05;7.63;;;;;;;7.98;96.29;102469.59;5031766;28;20146;-41
2022/01/29 04:16:10;;;;;;;23.85;6.20;;;;;;;7.97;96.17;102458.00;5031505;28;20029;-42
2022/01/29 04:18:36;;;;;;;25.38;6.10;;;;;;;7.96;96.10;102456.31;5030898;28;20481;-41
2022/01/29 04:21:02;;;;;;;25.02;6.63;;;;;;;7.99;96.45;102465.94;5031795;28;20027;-43
2022/01/29 04:23:28;;;;;;;24.75;6.07;;;;;;;7.99;96.36;102455.22;5031779;28;20029;-42
2022/01/29 04:25:53;;;;;;;29.70;6.35;;;;;;;7.97;96.22;102458.00;5031650;28;20108;-43
2022/01/29 04:28:23;;;;;;;18.02;6.47;;;;;;;7.97;96.20;102458.00;5030500;28;20053;-41
2022/01/29 04:30:54;;;;;;;25.48;6.60;;;;;;;7.97;96.17;102449.97;5031227;28;20028;-41
2022/01/29 04:35:48;;;;;;;24.50;5.88;;;;;;;7.96;96.05;102442.91;5031640;28;20496;-40
2022/01/29 04:38:13;;;;;;;32.05;6.43;;;;;;;7.98;95.88;102432.94;5030091;28;20112;-41
2022/01/29 04:40:39;;;;;;;29.40;7.75;;;;;;;7.98;96.17;102435.59;5029938;28;20063;-40
2022/01/29 04:43:04;;;;;;;24.92;7.10;;;;;;;7.97;96.16;102433.88;5030291;28;20068;-40
2022/01/29 04:45:30;;;;;;;28.25;6.88;;;;;;;7.97;96.00;102435.72;5030871;28;20510;-41
2022/01/29 04:47:56;;;;;;;29.15;7.07;;;;;;;7.93;96.31;102435.13;5030003;28;20435;-40
2022/01/29 04:50:21;;;;;;;38.75;6.78;;;;;;;7.91;96.40;102423.69;5030961;28;20065;-40
2022/01/29 04:52:46;;;;;;;42.67;6.93;;;;;;;7.92;96.31;102428.03;5030900;28;20033;-41
2022/01/29 04:55:12;;;;;;;28.83;6.68;;;;;;;7.93;96.41;102420.88;5031215;28;20067;-40
2022/01/29 04:57:39;;;;;;;33.65;7.85;;;;;;;7.93;96.53;102423.56;5029791;28;20121;-41
2022/01/29 05:00:20;;;;;;;29.77;5.93;;;;;;;7.95;96.33;102433.16;5031013;28;20556;-40
2022/01/29 05:02:47;;;;;;;35.97;5.95;;;;;;;7.99;96.42;102421.22;5016402;28;20032;-41
2022/01/29 05:05:12;;;;;;;21.60;5.30;;;;;;;8.01;96.29;102419.25;5031098;28;20030;-41
2022/01/29 05:07:37;;;;;;;27.88;5.38;;;;;;;8.03;96.18;102413.75;5030796;28;20108;-41
2022/01/29 05:10:03;;;;;;;33.58;6.82;;;;;;;8.06;95.87;102421.56;5030804;28;20083;-41
2022/01/29 05:12:39;;;;;;;30.40;5.47;;;;;;;8.06;96.07;102403.66;5030795;28;20057;-40
2022/01/29 05:15:11;;;;;;;27.70;5.95;;;;;;;8.07;95.74;102417.91;5032318;28;20029;-41
2022/01/29 05:28:32;;;;;;;24.92;5.43;;;;;;;8.16;95.68;102418.97;5025748;28;20081;-40
2022/01/29 05:30:58;;;;;;;23.88;5.55;;;;;;;8.14;95.90;102413.75;5035298;28;20033;-41
2022/01/29 05:33:23;;;;;;;25.10;6.40;;;;;;;8.14;96.01;102411.91;5032523;28;20143;-40
2022/01/29 05:35:48;;;;;;;32.65;5.65;;;;;;;8.16;95.91;102414.44;5033773;28;20477;-40
2022/01/29 05:38:14;;;;;;;26.27;5.40;;;;;;;8.17;95.86;102416.16;5027808;28;20029;-39
2022/01/29 05:40:39;;;;;;;24.80;5.07;;;;;;;8.19;95.58;102410.66;5023305;28;20040;-41
2022/01/29 05:43:04;;;;;;;19.83;4.22;;;;;;;8.19;95.35;102402.59;5031852;28;20080;-41
2022/01/29 05:45:30;;;;;;;17.25;4.78;;;;;;;8.21;95.54;102412.22;5031696;28;20052;-42
2022/01/29 05:47:55;;;;;;;21.73;5.00;;;;;;;8.24;95.37;102405.75;5031639;28;20117;-41
2022/01/29 05:50:20;;;;;;;21.25;5.32;;;;;;;8.25;95.38;102402.97;5031389;28;20091;-41
2022/01/29 05:52:46;;;;;;;19.45;4.45;;;;;;;8.29;95.28;102408.91;5031888;28;20033;-42
2022/01/29 05:55:11;;;;;;;22.88;5.18;;;;;;;8.30;94.80;102410.63;5031033;28;20041;-41
2022/01/29 05:57:36;;;;;;;27.00;5.15;;;;;;;8.33;94.66;102400.47;5030031;28;20093;-41
2022/01/29 06:00:03;;;;;;;14.05;4.03;;;;;;;8.34;94.32;102390.59;5031664;28;20400;-42
2022/01/29 06:02:29;;;;;;;20.13;4.53;;;;;;;8.35;94.69;102400.38;5032075;28;20389;-40
2022/01/29 06:04:54;;;;;;;21.83;5.55;;;;;;;8.37;94.90;102395.69;5031846;28;20076;-41
2022/01/29 06:07:19;;;;;;;23.13;4.70;;;;;;;8.39;94.52;102377.69;5031856;28;20115;-41
2022/01/29 06:09:45;;;;;;;27.60;5.43;;;;;;;8.36;94.68;102392.16;5032119;28;20129;-41
2022/01/29 06:12:10;;;;;;;27.70;4.85;;;;;;;8.40;94.51;102400.88;5029519;28;20489;-41
2022/01/29 06:14:35;;;;;;;24.83;4.85;;;;;;;8.38;94.51;102384.00;5018957;28;20094;-42
2022/01/29 06:17:01;;;;;;;19.20;4.85;;;;;;;8.40;94.46;102375.84;5030581;28;20099;-42
2022/01/29 06:19:26;;;;;;;23.63;5.28;;;;;;;8.40;94.42;102370.47;5028635;28;20116;-42
2022/01/29 06:21:51;;;;;;;24.05;6.15;;;;;;;8.39;94.58;102377.69;5025711;28;20037;-40
2022/01/29 06:24:17;;;;;;;21.67;4.80;;;;;;;8.38;94.79;102370.59;5030910;28;20389;-42
2022/01/29 06:26:42;;;;;;;30.20;5.15;;;;;;;8.36;94.56;102370.72;5028367;28;20116;-42
2022/01/29 06:29:07;;;;;;;29.02;4.72;;;;;;;8.36;94.51;102378.75;5030606;28;20481;-42
2022/01/29 06:31:33;;;;;;;23.17;5.40;;;;;;;8.36;94.58;102369.88;5023968;28;20580;-42
2022/01/29 06:33:58;;;;;;;25.73;4.25;;;;;;;8.39;94.49;102376.81;5029771;28;20493;-41
2022/01/29 06:36:24;;;;;;;22.35;4.40;;;;;;;8.40;94.71;102373.16;5023930;28;20528;-42
2022/01/29 06:38:49;;;;;;;18.50;4.53;;;;;;;8.39;94.67;102366.94;5028308;28;20481;-41
2022/01/29 06:41:14;;;;;;;16.10;3.88;;;;;;;8.40;94.76;102363.31;5026527;28;20052;-41
2022/01/29 06:43:40;;;;;;;23.38;4.53;;;;;;;8.42;94.56;102361.31;5024032;28;20449;-41
2022/01/29 06:46:05;;;;;;;24.17;4.68;;;;;;;8.44;94.74;102356.69;5024864;28;20025;-42
2022/01/29 06:48:30;;;;;;;21.48;3.65;;;;;;;8.49;94.44;102340.19;5027859;28;20123;-41
2022/01/29 06:50:56;;;;;;;18.48;3.75;;;;;;;8.52;94.40;102334.56;5023219;28;20085;-41
2022/01/29 06:53:21;;;;;;;24.90;4.13;;;;;;;8.55;94.26;102334.28;5012508;28;20065;-41
2022/01/29 06:55:47;;;;;;;28.45;4.32;;;;;;;8.57;94.25;102341.22;5016383;28;20128;-42
2022/01/29 06:58:12;;;;;;;16.75;3.58;;;;;;;8.61;94.28;102339.16;5018983;28;20461;-42
2022/01/29 07:00:37;;;;;;;18.83;3.58;;;;;;;8.63;94.06;102352.41;5026451;28;20116;-41
2022/01/29 07:03:03;;;;;;;20.67;3.80;;;;;;;8.65;94.36;102350.47;5030830;28;20026;-40
2022/01/29 07:05:28;;;;;;;22.80;3.58;;;;;;;8.64;94.30;102348.78;5031217;28;20060;-41
2022/01/29 07:07:53;;;;;;;17.83;3.90;;;;;;;8.63;94.55;102336.31;5030120;28;20031;-42
2022/01/29 07:10:19;;;;;;;27.15;3.83;;;;;;;8.60;94.65;102347.31;5032230;28;20036;-41
2022/01/29 07:12:44;;;;;;;25.25;3.95;;;;;;;8.57;94.98;102338.53;5040034;28;20036;-41
2022/01/29 07:15:10;;;;;;;21.83;4.72;;;;;;;8.54;94.87;102335.28;5037905;28;20037;-41
2022/01/29 07:17:36;;;;;;;23.58;4.10;;;;;;;8.53;95.03;102349.66;5019235;28;20030;-40
2022/01/29 07:20:03;;;;;;;10.80;3.63;;;;;;;8.53;94.64;102342.50;5023069;28;20029;-40
2022/01/29 07:22:28;;;;;;;18.80;3.30;;;;;;;8.54;94.61;102354.06;5029554;28;20045;-41
2022/01/29 07:24:54;;;;;;;18.88;3.30;;;;;;;8.53;94.71;102353.22;5030698;28;20551;-41
2022/01/29 07:27:19;;;;;;;21.80;3.30;;;;;;;8.54;94.68;102343.34;5030084;28;20025;-41
2022/01/29 07:29:44;;;;;;;24.90;4.22;;;;;;;8.53;94.99;102339.81;5029343;28;20406;-41
2022/01/29 07:32:10;;;;;;;27.05;3.40;;;;;;;8.52;94.48;102334.56;5030310;28;20042;-43
2022/01/29 07:34:36;;;;;;;30.95;4.00;;;;;;;8.49;94.83;102341.03;5030414;28;20742;-41
2022/01/29 07:37:02;;;;;;;27.00;4.28;;;;;;;8.49;94.69;102327.63;5029783;28;20073;-43
2022/01/29 07:39:27;;;;;;;26.92;4.05;;;;;;;8.50;95.13;102321.25;5029556;28;20161;-42
2022/01/29 07:41:53;;;;;;;35.22;4.80;;;;;;;8.50;94.72;102328.47;5029397;28;20057;-42
2022/01/29 07:44:19;;;;;;;22.42;4.10;;;;;;;8.50;94.68;102321.25;5029597;28;20535;-40
2022/01/29 07:46:45;;;;;;;34.17;4.50;;;;;;;8.48;94.43;102317.03;5029665;28;20030;-41
2022/01/29 07:49:10;;;;;;;18.25;4.50;;;;;;;8.48;94.95;102312.50;5031193;28;20038;-40
2022/01/29 07:51:37;;;;;;;28.95;4.82;;;;;;;8.50;95.12;102323.94;5029318;28;20353;-40
2022/01/29 07:54:02;;;;;;;34.08;4.22;;;;;;;8.50;95.04;102294.44;5029659;28;20099;-40
2022/01/29 07:56:28;;;;;;;31.35;5.53;;;;;;;8.47;94.99;102305.44;5011487;28;20037;-41
2022/01/29 07:58:53;;;;;;;27.27;4.95;;;;;;;8.48;94.96;102296.41;5031100;28;20021;-41
2022/01/29 08:01:19;;;;;;;30.88;4.25;;;;;;;8.51;95.10;102287.25;5031165;28;20040;-41
2022/01/29 08:03:46;;;;;;;21.83;3.90;;;;;;;8.52;94.85;102286.25;5032174;28;20462;-41
2022/01/29 08:06:12;;;;;;;29.58;4.05;;;;;;;8.53;95.10;102288.81;5040415;28;20025;-41
2022/01/29 08:08:38;;;;;;;27.65;4.53;;;;;;;8.56;95.09;102298.44;5038186;28;20040;-42
2022/01/29 08:11:03;;;;;;;29.95;3.90;;;;;;;8.56;94.98;102287.72;5033261;28;20401;-41
2022/01/29 08:13:28;;;;;;;27.02;4.45;;;;;;;8.59;94.56;102281.22;5034480;28;20033;-42
2022/01/29 08:15:54;;;;;;;25.33;4.10;;;;;;;8.63;94.47;102288.00;5032676;28;20064;-41
2022/01/29 08:18:19;;;;;;;40.42;3.95;;;;;;;8.65;94.28;102294.09;5032135;28;20061;-41
2022/01/29 08:20:44;;;;;;;21.13;3.58;;;;;;;8.62;94.39;102291.69;5031592;28;20548;-42
2022/01/29 08:23:10;;;;;;;33.80;3.92;;;;;;;8.60;94.60;102293.66;5031711;28;20117;-42
2022/01/29 08:25:37;;;;;;;21.65;3.30;;;;;;;8.57;94.49;102294.75;5031880;28;20108;-41
2022/01/29 08:28:04;;;;;;;25.77;4.50;;;;;;;8.56;94.58;102293.06;5031316;28;20528;-40
2022/01/29 08:30:29;;;;;;;27.15;3.88;;;;;;;8.56;94.75;102288.56;5031561;28;20037;-41
2022/01/29 08:32:54;;;;;;;25.20;4.00;;;;;;;8.59;94.71;102283.91;5031592;28;20087;-41
2022/01/29 08:35:20;;;;;;;27.67;4.68;;;;;;;8.61;94.76;102279.22;5031721;28;20030;-40
2022/01/29 08:37:46;;;;;;;24.80;3.42;;;;;;;8.62;94.46;102286.31;5031776;28;20025;-42
2022/01/29 08:40:12;;;;;;;27.08;3.78;;;;;;;8.65;94.16;102278.00;5030458;28;20041;-41
2022/01/29 08:42:38;;;;;;;33.10;3.50;;;;;;;8.67;93.86;102278.72;5030829;28;20077;-43
2022/01/29 08:45:06;;;;;;;20.88;3.53;;;;;;;8.69;93.81;102274.91;5032038;28;20028;-41
2022/01/29 08:47:31;;;;;;;21.17;3.28;;;;;;;8.70;93.44;102270.38;5040543;28;20041;-44
2022/01/29 08:49:56;;;;;;;23.23;2.92;;;;;;;8.72;93.13;102263.91;5037674;28;20029;-40
2022/01/29 08:52:22;;;;;;;19.83;3.03;;;;;;;8.76;93.13;102254.59;5038740;28;20094;-41
2022/01/29 08:54:48;;;;;;;16.25;2.45;;;;;;;8.77;92.71;102258.97;5031723;28;20141;-40
2022/01/29 08:57:14;;;;;;;22.10;2.65;;;;;;;8.81;92.48;102259.56;5027082;28;20064;-41
2022/01/29 08:59:39;;;;;;;22.48;2.97;;;;;;;8.85;92.33;102244.88;5026301;28;20447;-41
2022/01/29 09:02:05;;;;;;;21.13;3.25;;;;;;;8.87;92.29;102245.56;5028690;28;20087;-41
2022/01/29 09:04:30;;;;;;;18.75;2.13;;;;;;;8.89;92.03;102235.56;5026949;28;20029;-41
2022/01/29 09:06:55;;;;;;;22.08;3.05;;;;;;;8.93;91.98;102250.41;5028337;28;20029;-42
2022/01/29 09:09:25;;;;;;;27.20;2.92;;;;;;;8.98;91.87;102256.22;5027964;28;20033;-41
2022/01/29 09:11:51;;;;;;;21.85;2.47;;;;;;;9.08;91.04;102256.22;5028268;28;20033;-42
2022/01/29 09:14:17;;;;;;;22.17;3.22;;;;;;;9.13;90.76;102258.50;5026305;28;20176;-42
2022/01/29 09:16:42;;;;;;;23.55;2.55;;;;;;;9.25;90.31;102256.56;5028192;28;20219;-42
2022/01/29 09:19:08;;;;;;;19.58;2.78;;;;;;;9.32;89.55;102253.19;5028391;28;20517;-41
2022/01/29 09:21:33;;;;;;;18.38;2.40;;;;;;;9.35;89.57;102252.91;5028501;28;20374;-40
2022/01/29 09:23:58;;;;;;;15.05;2.33;;;;;;;9.41;89.23;102243.44;5028385;28;20033;-40
2022/01/29 09:26:24;;;;;;;20.73;2.83;;;;;;;9.56;88.84;102233.97;5028008;28;20427;-40
2022/01/29 09:28:49;;;;;;;25.88;3.15;;;;;;;9.78;87.44;102234.69;5028285;28;20386;-41
2022/01/29 09:31:14;;;;;;;18.40;2.58;;;;;;;10.02;86.79;102234.22;5028121;28;20492;-40
2022/01/29 09:33:40;;;;;;;22.45;2.80;;;;;;;10.25;84.83;102230.22;5028896;28;20556;-41
2022/01/29 09:36:05;;;;;;;14.82;2.97;;;;;;;10.55;83.35;102225.59;5027997;28;20030;-40
2022/01/29 09:38:30;;;;;;;21.42;2.58;;;;;;;10.59;83.23;102232.41;5028739;28;20124;-41
2022/01/29 09:40:56;;;;;;;14.98;2.95;;;;;;;10.73;82.48;102206.81;5031693;28;20104;-45
2022/01/29 09:43:25;;;;;;;18.90;2.40;;;;;;;10.92;81.74;102217.47;5026000;28;20115;-41
2022/01/29 09:45:51;;;;;;;14.30;1.95;;;;;;;10.99;81.46;102206.97;5024713;28;20033;-42
2022/01/29 09:48:30;;;;;;;16.98;2.90;;;;;;;11.07;80.54;102203.50;5025670;28;20026;-42
2022/01/29 09:50:57;;;;;;;16.75;2.40;;;;;;;10.99;80.23;102202.41;5024825;28;20076;-41
2022/01/29 09:53:22;;;;;;;16.08;2.33;;;;;;;11.21;80.10;102166.09;5017133;28;20029;-41
2022/01/29 09:55:48;;;;;;;13.70;2.35;;;;;;;11.12;79.92;102191.28;5016514;28;20797;-43
2022/01/29 09:58:13;;;;;;;19.17;2.58;;;;;;;10.90;80.24;102207.84;5017038;28;20034;-41
2022/01/29 10:00:39;;;;;;;16.10;2.45;;;;;;;10.88;80.95;102213.41;5014844;28;20044;-43
2022/01/29 10:03:10;;;;;;;23.90;2.92;;;;;;;11.07;79.67;102206.22;5030158;28;20128;-41
2022/01/29 10:05:40;;;;;;;21.05;2.45;;;;;;;11.30;78.93;102217.41;5033081;28;20112;-42
2022/01/29 10:08:07;;;;;;;14.60;2.40;;;;;;;11.50;77.77;102220.78;5032597;28;20037;-41
2022/01/29 10:10:43;;;;;;;14.63;2.28;;;;;;;11.62;77.27;102220.41;5029350;28;20033;-40
2022/01/29 10:13:34;;;;;;;26.55;3.08;;;;;;;11.62;77.28;102215.00;5031629;28;20120;-41
2022/01/29 10:16:19;;;;;;;13.20;2.13;;;;;;;11.13;78.36;102209.13;5026232;28;20041;-41
2022/01/29 10:18:47;;;;;;;13.95;2.15;;;;;;;11.04;79.17;102207.34;5029604;28;20435;-41
2022/01/29 10:21:23;;;;;;;21.48;1.80;;;;;;;10.91;79.19;102207.72;5033789;28;20104;-41
2022/01/29 10:23:48;;;;;;;13.75;1.90;;;;;;;11.01;79.13;102204.97;5030266;28;20521;-41
2022/01/29 10:26:27;;;;;;;12.80;2.10;;;;;;;10.87;79.49;102214.38;5028816;28;20047;-42
2022/01/29 10:28:54;;;;;;;9.02;1.98;;;;;;;11.13;78.93;102186.72;5031368;28;20079;-42
2022/01/29 10:31:19;;;;;;;12.73;2.05;;;;;;;11.18;78.33;102200.59;5030529;28;20034;-42
2022/01/29 10:33:44;;;;;;;22.63;2.13;;;;;;;11.18;78.40;102189.81;5031901;28;20143;-42
2022/01/29 10:36:17;;;;;;;16.48;2.20;;;;;;;11.40;78.09;102191.19;5029173;28;20064;-42
2022/01/29 10:39:00;;;;;;;11.35;1.70;;;;;;;11.42;77.49;102178.41;5031456;28;20474;-41
2022/01/29 10:41:29;;;;;;;10.20;2.25;;;;;;;11.34;77.51;102194.50;5033281;28;20064;-41
2022/01/29 10:44:14;;;;;;;17.17;2.20;;;;;;;11.17;78.05;102194.34;5034832;28;20041;-42
2022/01/29 10:46:44;;;;;;;10.30;2.00;;;;;;;10.89;79.05;102184.63;5037871;28;20033;-41
2022/01/29 10:49:18;;;;;;;14.98;2.50;;;;;;;10.70;80.18;102186.44;5028380;28;20025;-41
2022/01/29 10:51:54;;;;;;;19.38;2.47;;;;;;;10.87;80.02;102181.22;5026467;28;20108;-42
2022/01/29 10:54:20;;;;;;;15.48;2.30;;;;;;;10.95;80.28;102179.50;5032198;28;20114;-43
2022/01/29 10:56:56;;;;;;;12.57;2.25;;;;;;;10.92;79.84;102184.31;5023800;28;20028;-42
2022/01/29 10:59:22;;;;;;;15.73;2.50;;;;;;;10.79;80.03;102156.91;5031965;28;20034;-42
2022/01/29 11:02:14;;;;;;;17.52;2.67;;;;;;;10.53;81.02;102147.69;5027207;28;20188;-42
2022/01/29 11:04:41;;;;;;;15.57;2.70;;;;;;;10.50;81.62;102147.13;5030013;28;20044;-40
2022/01/29 11:07:14;;;;;;;28.23;3.60;;;;;;;10.30;81.98;102141.84;5029747;28;20029;-42
2022/01/29 11:09:42;;;;;;;22.13;2.85;;;;;;;10.32;82.70;102147.06;5030230;28;20037;-41
2022/01/29 11:12:09;;;;;;;25.52;2.65;;;;;;;10.61;82.49;102144.25;5032022;28;20029;-42
2022/01/29 11:14:35;;;;;;;15.98;2.70;;;;;;;10.98;80.62;102137.94;5028863;28;20044;-41
2022/01/29 11:17:02;;;;;;;22.80;3.17;;;;;;;11.28;78.46;102136.69;5028643;28;20037;-42
2022/01/29 11:19:28;;;;;;;13.85;2.50;;;;;;;11.85;76.65;102134.44;5013788;28;20049;-41
2022/01/29 11:21:56;;;;;;;15.52;2.70;;;;;;;11.95;75.46;102133.50;5032143;28;20119;-42
2022/01/29 11:24:23;;;;;;;19.65;2.60;;;;;;;12.16;75.08;102130.41;5026215;28;20477;-41
2022/01/29 11:26:49;;;;;;;14.70;2.25;;;;;;;12.25;74.48;102124.91;5025044;28;20263;-42
2022/01/29 11:29:25;;;;;;;17.42;2.13;;;;;;;12.06;74.78;102134.09;5026842;28;20095;-41
2022/01/29 11:32:21;;;;;;;19.75;2.40;;;;;;;12.08;74.66;102124.00;5020979;28;20095;-42